Historyczne dane pomiarowe

Dodano dane terminowe – wersja testowa.

Dane z okresu 1951-2019

Wersja bazy: 1.34 [2019-03-16, lista zmian], aktualizacja planowana na 2019-04-15

Dane meteo z obszaru Polski uzyskane na podstawie danych udostępnionych przez Instytut Meteorologii i Gospodarki Wodnej – Państwowy Instytut Badawczy.

 

Wybierz Datę:    

       

TemperaturaWilgotnośćZachmurzenieWiatrCiśnienieWidzialnośćZjawiska
 Data    tng td wb rh cc ccl cl cm ch dir g1 g2 mslp ppp      
1999-06-19 00:00:00 13.5--- 12.6 13.095wxwxwxwx3wx--1015.9 991.3 2.0---wxw1
1999-06-19 01:00:00 13.5--- 12.6 13.095wxwxwxwx3wx--1016.1 991.5----wx
1999-06-19 02:00:00 13.4--- 12.5 12.995wxwxwxwx3wx--1016.2 991.6----wxw1
1999-06-19 03:00:00 13.3--- 12.6 12.996wxwxwxwx3wx--1016.3 991.7----wxw1
1999-06-19 04:00:00 13.5--- 13.2 13.398wxwxwxwx1wx--1016.7 992.1----wxw1
1999-06-19 05:00:00 13.6--- 13.3 13.498wxwxwxwx2wx--1017.0 992.4----wxw1
1999-06-19 06:00:00 13.9--- 13.2 13.596wxwxwxwx2wx--1017.4 992.8 1.7---wxw1
1999-06-19 07:00:00 14.0--- 13.3 13.696wxwxwxwx3wx--1018.0 993.4----wxw1
1999-06-19 08:00:00 14.2--- 12.8 13.492wxwxwxwx3wx--1017.9 993.3----wxw1
1999-06-19 09:00:00 14.4--- 13.7 14.096wxwxwxwx3wx--1018.5 993.9----wx
1999-06-19 10:00:00 14.4--- 13.7 14.096wxwxwxwx3wx--1018.6 994.0----wx
1999-06-19 11:00:00 14.4--- 13.7 14.096wxwxwxwx4wx--1018.7 994.1----wxw1
1999-06-19 12:00:00 15.2--- 14.2 14.694wxwxwxwx4wx--1018.3 993.8 0.4---wxw1
1999-06-19 13:00:00 16.0--- 14.4 15.090wxwxwxwx4wx--1018.3 993.9----wx
1999-06-19 14:00:00 17.0--- 13.7 15.081wxwxwxwx3wx--1018.3 993.9----wx
1999-06-19 15:00:00 17.2--- 13.6 15.079wxwxwxwx2wx--1018.1 993.8----wx
1999-06-19 16:00:00 17.4--- 13.8 15.279wxwxwxwx1wx--1017.8 993.5----wx
1999-06-19 17:00:00 17.4--- 15.5 16.288wxwxwxwx0wx--1018.0 993.7----wx
1999-06-19 18:00:00 17.2--- 15.4 16.189wxwxwxwx1wx--1018.2 993.9 0.0---wx
1999-06-19 19:00:00 16.4--- 13.9 14.985wxwxwxwx2wx--1018.8 994.4----wx
1999-06-19 20:00:00 15.8--- 15.0 15.395wxwxwxwx1wx--1019.2 994.7----wx
1999-06-19 21:00:00 15.6--- 15.1 15.397wxwxwxwx1wx--1019.2 994.7----wx
1999-06-19 22:00:00 15.1--- 14.3 14.695wxwxwxwx2wx--1019.0 994.5----wx
1999-06-19 23:00:00 14.8--- 13.5 14.092wxwxwxwx1wx--1019.1 994.5----wx

 

Źródłem pochodzenia danych jest Instytut Meteorologii i Gospodarki Wodnej – Państwowy Instytut Badawczy. Dane Instytutu Meteorologii i Gospodarki Wodnej – Państwowego Instytutu Badawczego zostały przetworzone.

Dane źródłowe można odnaleźć na stronie https://dane.imgw.pl